CYHI

Details ICAO CYHI (YHI)
Name ULUKHAKTOK HOLMAN
Region Canada
Timezone America/Yellowknife (UTC-6.0)
Plans Departing 4
Arriving 9
Stats Elevation 117 ft / 36 m (AMSL)
Location 70.763054° -117.805832°
Runways 1
Magnetic Variation 18.584° E
Sunrise Unknown / Unknown
Sunset Unknown / Unknown
Advertisement - Login to hide

Runways

ID Width Length Bearing (true) Bearing (mag) Surface Threshold Offset Overrun Length
06T 100 ft / 30 m 4,284 ft / 1,306 m 61.97° 43.39° Gravel 0 ft / 0 m 0 ft / 0 m
24T 100 ft / 30 m 4,284 ft / 1,306 m 242.00° 223.42° Gravel 0 ft / 0 m 0 ft / 0 m

Map

Weather


0- 5 10 15 20 25 30 35+ Temperature / ° C

Clouds and Precipitation
Forecast for 2018-05-22 18:00 UTC. Updated an hour ago

Ground ~20,000 ft ~40,000 ft Winds

METAR

CYHI 221800Z 08018KT 15SM BKN150 BKN210 M07/M11 A2998 RMK AS5CI1 SLP156

TAF

TAF CYHI 221538Z 2216/2224 10015G25KT P6SM SCT190 TEMPO 2216/2224 BKN130 RMK NXT FCST BY 221900Z

Frequencies

Unicom 122.10 MHz MANDATORY FREQ
Warning: Do not use this data for real-world aviation or navigation. No guarantee of current accuracy is given.